sensor_id;sensor_type;location;lat;lon;timestamp;P1;durP1;ratioP1;P2;durP2;ratioP2
3991;SDS011;2010;48.194;16.394;2022-07-04T00:00:02;2.40;;;2.30;;
3991;SDS011;2010;48.194;16.394;2022-07-04T00:02:50;3.00;;;2.60;;
3991;SDS011;2010;48.194;16.394;2022-07-04T00:05:30;4.87;;;2.50;;
3991;SDS011;2010;48.194;16.394;2022-07-04T00:08:03;2.37;;;2.27;;
3991;SDS011;2010;48.194;16.394;2022-07-04T00:10:43;2.67;;;2.57;;
3991;SDS011;2010;48.194;16.394;2022-07-04T00:13:21;3.00;;;2.73;;
3991;SDS011;2010;48.194;16.394;2022-07-04T00:15:54;4.23;;;2.67;;
3991;SDS011;2010;48.194;16.394;2022-07-04T00:18:39;2.60;;;2.40;;
3991;SDS011;2010;48.194;16.394;2022-07-04T00:21:11;2.83;;;2.60;;
3991;SDS011;2010;48.194;16.394;2022-07-04T00:23:45;5.83;;;2.70;;
3991;SDS011;2010;48.194;16.394;2022-07-04T00:26:13;2.63;;;2.43;;
3991;SDS011;2010;48.194;16.394;2022-07-04T00:31:37;3.00;;;2.50;;
3991;SDS011;2010;48.194;16.394;2022-07-04T00:34:10;4.23;;;2.77;;
3991;SDS011;2010;48.194;16.394;2022-07-04T00:36:40;4.83;;;3.07;;
3991;SDS011;2010;48.194;16.394;2022-07-04T00:39:12;2.90;;;2.60;;
3991;SDS011;2010;48.194;16.394;2022-07-04T00:41:45;2.97;;;2.77;;
3991;SDS011;2010;48.194;16.394;2022-07-04T00:44:36;2.73;;;2.53;;
3991;SDS011;2010;48.194;16.394;2022-07-04T00:47:10;2.70;;;2.50;;
3991;SDS011;2010;48.194;16.394;2022-07-04T00:49:42;11.47;;;2.30;;
3991;SDS011;2010;48.194;16.394;2022-07-04T00:52:11;2.77;;;2.53;;
3991;SDS011;2010;48.194;16.394;2022-07-04T00:54:42;3.50;;;2.60;;
3991;SDS011;2010;48.194;16.394;2022-07-04T00:57:11;3.10;;;2.80;;
3991;SDS011;2010;48.194;16.394;2022-07-04T00:59:47;3.90;;;3.07;;
3991;SDS011;2010;48.194;16.394;2022-07-04T01:02:16;2.27;;;2.17;;
3991;SDS011;2010;48.194;16.394;2022-07-04T01:04:52;2.60;;;2.30;;
3991;SDS011;2010;48.194;16.394;2022-07-04T01:07:25;2.53;;;2.40;;
3991;SDS011;2010;48.194;16.394;2022-07-04T01:09:56;3.27;;;2.40;;
3991;SDS011;2010;48.194;16.394;2022-07-04T01:12:29;2.53;;;2.33;;
3991;SDS011;2010;48.194;16.394;2022-07-04T01:15:12;5.13;;;2.33;;
3991;SDS011;2010;48.194;16.394;2022-07-04T01:17:45;2.90;;;2.57;;
3991;SDS011;2010;48.194;16.394;2022-07-04T01:20:22;2.30;;;2.10;;
3991;SDS011;2010;48.194;16.394;2022-07-04T01:22:56;2.60;;;2.50;;
3991;SDS011;2010;48.194;16.394;2022-07-04T01:25:25;2.90;;;2.70;;
3991;SDS011;2010;48.194;16.394;2022-07-04T01:28:04;3.07;;;2.87;;
3991;SDS011;2010;48.194;16.394;2022-07-04T01:30:42;4.10;;;2.30;;
3991;SDS011;2010;48.194;16.394;2022-07-04T01:33:15;3.60;;;2.83;;
3991;SDS011;2010;48.194;16.394;2022-07-04T01:35:57;3.13;;;2.87;;
3991;SDS011;2010;48.194;16.394;2022-07-04T01:38:25;3.27;;;3.07;;
3991;SDS011;2010;48.194;16.394;2022-07-04T01:40:57;3.13;;;2.93;;
3991;SDS011;2010;48.194;16.394;2022-07-04T01:43:28;3.10;;;3.00;;
3991;SDS011;2010;48.194;16.394;2022-07-04T01:46:08;3.37;;;3.07;;
3991;SDS011;2010;48.194;16.394;2022-07-04T01:48:39;3.73;;;3.20;;
3991;SDS011;2010;48.194;16.394;2022-07-04T01:51:16;2.57;;;2.47;;
3991;SDS011;2010;48.194;16.394;2022-07-04T01:53:54;2.87;;;2.67;;
3991;SDS011;2010;48.194;16.394;2022-07-04T01:56:28;3.00;;;2.80;;
3991;SDS011;2010;48.194;16.394;2022-07-04T01:59:03;5.50;;;2.80;;
3991;SDS011;2010;48.194;16.394;2022-07-04T02:01:37;3.57;;;3.27;;
3991;SDS011;2010;48.194;16.394;2022-07-04T02:04:07;3.00;;;2.80;;
3991;SDS011;2010;48.194;16.394;2022-07-04T02:07:06;2.73;;;2.63;;
3991;SDS011;2010;48.194;16.394;2022-07-04T02:09:35;3.43;;;3.20;;
3991;SDS011;2010;48.194;16.394;2022-07-04T02:12:09;3.10;;;2.90;;
3991;SDS011;2010;48.194;16.394;2022-07-04T02:14:56;5.83;;;2.93;;
3991;SDS011;2010;48.194;16.394;2022-07-04T02:17:30;2.70;;;2.60;;
3991;SDS011;2010;48.194;16.394;2022-07-04T02:20:02;3.20;;;3.00;;
3991;SDS011;2010;48.194;16.394;2022-07-04T02:22:49;3.40;;;3.20;;
3991;SDS011;2010;48.194;16.394;2022-07-04T02:25:23;3.43;;;3.23;;
3991;SDS011;2010;48.194;16.394;2022-07-04T02:28:05;3.20;;;2.90;;
3991;SDS011;2010;48.194;16.394;2022-07-04T02:30:50;3.27;;;3.07;;
3991;SDS011;2010;48.194;16.394;2022-07-04T02:33:27;3.07;;;2.90;;
3991;SDS011;2010;48.194;16.394;2022-07-04T02:36:06;3.30;;;3.00;;
3991;SDS011;2010;48.194;16.394;2022-07-04T02:38:39;3.20;;;3.00;;
3991;SDS011;2010;48.194;16.394;2022-07-04T02:41:11;3.10;;;2.90;;
3991;SDS011;2010;48.194;16.394;2022-07-04T02:43:42;3.27;;;3.07;;
3991;SDS011;2010;48.194;16.394;2022-07-04T02:46:17;3.83;;;3.60;;
3991;SDS011;2010;48.194;16.394;2022-07-04T02:49:02;3.20;;;2.90;;
3991;SDS011;2010;48.194;16.394;2022-07-04T02:51:35;4.33;;;2.67;;
3991;SDS011;2010;48.194;16.394;2022-07-04T02:54:10;3.17;;;3.00;;
3991;SDS011;2010;48.194;16.394;2022-07-04T02:56:54;3.13;;;2.93;;
3991;SDS011;2010;48.194;16.394;2022-07-04T02:59:49;4.03;;;3.07;;
3991;SDS011;2010;48.194;16.394;2022-07-04T03:02:18;2.67;;;2.50;;
3991;SDS011;2010;48.194;16.394;2022-07-04T03:04:51;3.70;;;3.37;;
3991;SDS011;2010;48.194;16.394;2022-07-04T03:07:21;3.53;;;2.87;;
3991;SDS011;2010;48.194;16.394;2022-07-04T03:09:51;3.40;;;3.20;;
3991;SDS011;2010;48.194;16.394;2022-07-04T03:12:30;3.07;;;2.87;;
3991;SDS011;2010;48.194;16.394;2022-07-04T03:15:13;7.30;;;2.67;;
3991;SDS011;2010;48.194;16.394;2022-07-04T03:17:46;3.30;;;3.00;;
3991;SDS011;2010;48.194;16.394;2022-07-04T03:20:18;2.50;;;2.40;;
3991;SDS011;2010;48.194;16.394;2022-07-04T03:22:54;3.27;;;2.77;;
3991;SDS011;2010;48.194;16.394;2022-07-04T03:25:30;2.90;;;2.70;;
3991;SDS011;2010;48.194;16.394;2022-07-04T03:28:18;3.13;;;2.50;;
3991;SDS011;2010;48.194;16.394;2022-07-04T03:30:50;2.87;;;2.67;;
3991;SDS011;2010;48.194;16.394;2022-07-04T03:33:20;3.27;;;2.67;;
3991;SDS011;2010;48.194;16.394;2022-07-04T03:35:57;4.23;;;3.17;;
3991;SDS011;2010;48.194;16.394;2022-07-04T03:38:27;2.40;;;2.30;;
3991;SDS011;2010;48.194;16.394;2022-07-04T03:41:00;4.27;;;2.80;;
3991;SDS011;2010;48.194;16.394;2022-07-04T03:43:38;3.10;;;2.90;;
3991;SDS011;2010;48.194;16.394;2022-07-04T03:46:17;2.80;;;2.60;;
3991;SDS011;2010;48.194;16.394;2022-07-04T03:48:49;3.47;;;2.93;;
3991;SDS011;2010;48.194;16.394;2022-07-04T03:51:17;2.73;;;2.53;;
3991;SDS011;2010;48.194;16.394;2022-07-04T03:54:01;3.47;;;3.20;;
3991;SDS011;2010;48.194;16.394;2022-07-04T03:56:50;5.83;;;2.90;;
3991;SDS011;2010;48.194;16.394;2022-07-04T03:59:19;3.40;;;2.50;;
3991;SDS011;2010;48.194;16.394;2022-07-04T04:01:53;2.83;;;2.63;;
3991;SDS011;2010;48.194;16.394;2022-07-04T04:04:29;3.40;;;3.10;;
3991;SDS011;2010;48.194;16.394;2022-07-04T04:07:19;3.00;;;2.70;;
3991;SDS011;2010;48.194;16.394;2022-07-04T04:09:50;3.23;;;3.00;;
3991;SDS011;2010;48.194;16.394;2022-07-04T04:12:42;2.43;;;2.33;;
3991;SDS011;2010;48.194;16.394;2022-07-04T04:15:20;4.73;;;2.50;;
3991;SDS011;2010;48.194;16.394;2022-07-04T04:18:02;2.47;;;2.37;;
3991;SDS011;2010;48.194;16.394;2022-07-04T04:20:35;2.83;;;2.53;;
3991;SDS011;2010;48.194;16.394;2022-07-04T04:23:04;5.87;;;2.50;;
3991;SDS011;2010;48.194;16.394;2022-07-04T04:25:34;3.30;;;3.10;;
3991;SDS011;2010;48.194;16.394;2022-07-04T04:28:19;8.03;;;3.03;;
3991;SDS011;2010;48.194;16.394;2022-07-04T04:30:50;4.13;;;3.07;;
3991;SDS011;2010;48.194;16.394;2022-07-04T04:33:35;3.17;;;2.87;;
3991;SDS011;2010;48.194;16.394;2022-07-04T04:36:03;3.60;;;2.80;;
3991;SDS011;2010;48.194;16.394;2022-07-04T04:38:35;2.60;;;2.40;;
3991;SDS011;2010;48.194;16.394;2022-07-04T04:41:04;2.80;;;2.60;;
3991;SDS011;2010;48.194;16.394;2022-07-04T04:43:36;3.10;;;2.80;;
3991;SDS011;2010;48.194;16.394;2022-07-04T04:46:04;3.63;;;3.10;;
3991;SDS011;2010;48.194;16.394;2022-07-04T04:48:39;3.80;;;3.37;;
3991;SDS011;2010;48.194;16.394;2022-07-04T04:51:18;5.03;;;3.93;;
3991;SDS011;2010;48.194;16.394;2022-07-04T04:53:52;5.33;;;4.93;;
3991;SDS011;2010;48.194;16.394;2022-07-04T04:56:33;4.40;;;4.00;;
3991;SDS011;2010;48.194;16.394;2022-07-04T04:59:23;4.50;;;3.63;;
3991;SDS011;2010;48.194;16.394;2022-07-04T05:01:59;8.20;;;3.80;;
3991;SDS011;2010;48.194;16.394;2022-07-04T05:04:35;7.00;;;3.70;;
3991;SDS011;2010;48.194;16.394;2022-07-04T05:07:12;5.10;;;3.90;;
3991;SDS011;2010;48.194;16.394;2022-07-04T05:09:48;5.80;;;4.83;;
3991;SDS011;2010;48.194;16.394;2022-07-04T05:12:29;39.27;;;8.80;;
3991;SDS011;2010;48.194;16.394;2022-07-04T05:15:08;85.03;;;13.60;;
3991;SDS011;2010;48.194;16.394;2022-07-04T05:17:37;53.53;;;11.07;;
3991;SDS011;2010;48.194;16.394;2022-07-04T05:20:10;79.87;;;13.17;;
3991;SDS011;2010;48.194;16.394;2022-07-04T05:22:42;219.57;;;26.90;;
3991;SDS011;2010;48.194;16.394;2022-07-04T05:25:13;180.50;;;22.00;;
3991;SDS011;2010;48.194;16.394;2022-07-04T05:27:45;171.30;;;25.40;;
3991;SDS011;2010;48.194;16.394;2022-07-04T05:30:20;167.20;;;24.30;;
3991;SDS011;2010;48.194;16.394;2022-07-04T05:32:52;208.63;;;22.60;;
3991;SDS011;2010;48.194;16.394;2022-07-04T05:35:31;95.83;;;14.17;;
3991;SDS011;2010;48.194;16.394;2022-07-04T05:38:04;118.37;;;13.67;;
3991;SDS011;2010;48.194;16.394;2022-07-04T05:40:43;55.60;;;10.77;;
3991;SDS011;2010;48.194;16.394;2022-07-04T05:43:15;50.67;;;10.13;;
3991;SDS011;2010;48.194;16.394;2022-07-04T05:45:54;49.83;;;8.50;;
3991;SDS011;2010;48.194;16.394;2022-07-04T05:48:29;124.83;;;19.63;;
3991;SDS011;2010;48.194;16.394;2022-07-04T05:51:10;67.53;;;13.80;;
3991;SDS011;2010;48.194;16.394;2022-07-04T05:54:04;91.67;;;14.70;;
3991;SDS011;2010;48.194;16.394;2022-07-04T05:56:36;227.33;;;32.50;;
3991;SDS011;2010;48.194;16.394;2022-07-04T05:59:14;187.60;;;29.50;;
3991;SDS011;2010;48.194;16.394;2022-07-04T06:01:46;101.20;;;21.23;;
3991;SDS011;2010;48.194;16.394;2022-07-04T06:04:24;143.30;;;26.30;;
3991;SDS011;2010;48.194;16.394;2022-07-04T06:06:59;101.00;;;21.20;;
3991;SDS011;2010;48.194;16.394;2022-07-04T06:09:28;36.33;;;8.70;;
3991;SDS011;2010;48.194;16.394;2022-07-04T06:11:57;26.77;;;7.30;;
3991;SDS011;2010;48.194;16.394;2022-07-04T06:14:34;20.63;;;6.67;;
3991;SDS011;2010;48.194;16.394;2022-07-04T06:17:10;88.23;;;20.20;;
3991;SDS011;2010;48.194;16.394;2022-07-04T06:19:39;98.17;;;22.07;;
3991;SDS011;2010;48.194;16.394;2022-07-04T06:22:13;174.63;;;31.40;;
3991;SDS011;2010;48.194;16.394;2022-07-04T06:24:51;153.70;;;29.60;;
3991;SDS011;2010;48.194;16.394;2022-07-04T06:27:36;100.70;;;21.00;;
3991;SDS011;2010;48.194;16.394;2022-07-04T06:30:10;112.93;;;22.40;;
3991;SDS011;2010;48.194;16.394;2022-07-04T06:32:49;105.80;;;21.77;;
3991;SDS011;2010;48.194;16.394;2022-07-04T06:35:36;92.03;;;17.50;;
3991;SDS011;2010;48.194;16.394;2022-07-04T06:38:23;123.43;;;22.77;;
3991;SDS011;2010;48.194;16.394;2022-07-04T06:40:56;133.67;;;25.80;;
3991;SDS011;2010;48.194;16.394;2022-07-04T06:43:30;85.07;;;22.57;;
3991;SDS011;2010;48.194;16.394;2022-07-04T06:46:02;49.27;;;12.97;;
3991;SDS011;2010;48.194;16.394;2022-07-04T06:48:37;40.20;;;10.10;;
3991;SDS011;2010;48.194;16.394;2022-07-04T06:51:06;51.10;;;12.87;;
3991;SDS011;2010;48.194;16.394;2022-07-04T06:53:37;11.83;;;4.80;;
3991;SDS011;2010;48.194;16.394;2022-07-04T06:56:13;8.77;;;3.47;;
3991;SDS011;2010;48.194;16.394;2022-07-04T06:58:46;4.37;;;3.27;;
3991;SDS011;2010;48.194;16.394;2022-07-04T07:01:16;7.13;;;2.70;;
3991;SDS011;2010;48.194;16.394;2022-07-04T07:03:53;4.30;;;3.07;;
3991;SDS011;2010;48.194;16.394;2022-07-04T07:06:27;3.20;;;3.00;;
3991;SDS011;2010;48.194;16.394;2022-07-04T07:09:01;3.37;;;3.07;;
3991;SDS011;2010;48.194;16.394;2022-07-04T07:11:40;5.57;;;2.83;;
3991;SDS011;2010;48.194;16.394;2022-07-04T07:14:19;3.40;;;3.00;;
3991;SDS011;2010;48.194;16.394;2022-07-04T07:16:51;5.70;;;2.90;;
3991;SDS011;2010;48.194;16.394;2022-07-04T07:19:44;3.73;;;3.13;;
3991;SDS011;2010;48.194;16.394;2022-07-04T07:22:15;3.33;;;2.87;;
3991;SDS011;2010;48.194;16.394;2022-07-04T07:24:45;5.00;;;2.73;;
3991;SDS011;2010;48.194;16.394;2022-07-04T07:27:31;2.90;;;2.50;;
3991;SDS011;2010;48.194;16.394;2022-07-04T07:30:15;5.00;;;2.80;;
3991;SDS011;2010;48.194;16.394;2022-07-04T07:32:54;2.87;;;2.60;;
3991;SDS011;2010;48.194;16.394;2022-07-04T07:35:31;3.07;;;2.80;;
3991;SDS011;2010;48.194;16.394;2022-07-04T07:38:06;5.80;;;3.00;;
3991;SDS011;2010;48.194;16.394;2022-07-04T07:40:36;3.77;;;2.67;;
3991;SDS011;2010;48.194;16.394;2022-07-04T07:43:11;2.57;;;2.37;;
3991;SDS011;2010;48.194;16.394;2022-07-04T07:45:44;5.53;;;2.93;;
3991;SDS011;2010;48.194;16.394;2022-07-04T07:48:19;2.40;;;2.20;;
3991;SDS011;2010;48.194;16.394;2022-07-04T07:51:02;2.07;;;1.97;;
3991;SDS011;2010;48.194;16.394;2022-07-04T07:53:34;4.80;;;2.30;;
3991;SDS011;2010;48.194;16.394;2022-07-04T07:56:31;7.40;;;2.67;;
3991;SDS011;2010;48.194;16.394;2022-07-04T07:59:07;1.70;;;1.60;;
3991;SDS011;2010;48.194;16.394;2022-07-04T08:01:53;3.17;;;1.97;;
3991;SDS011;2010;48.194;16.394;2022-07-04T08:04:31;1.53;;;1.43;;
3991;SDS011;2010;48.194;16.394;2022-07-04T08:07:11;3.90;;;1.70;;
3991;SDS011;2010;48.194;16.394;2022-07-04T08:09:51;2.87;;;1.50;;
3991;SDS011;2010;48.194;16.394;2022-07-04T08:12:27;3.20;;;1.90;;
3991;SDS011;2010;48.194;16.394;2022-07-04T08:14:58;2.10;;;1.40;;
3991;SDS011;2010;48.194;16.394;2022-07-04T08:17:34;1.57;;;1.47;;
3991;SDS011;2010;48.194;16.394;2022-07-04T08:20:08;1.70;;;1.60;;
3991;SDS011;2010;48.194;16.394;2022-07-04T08:22:40;2.00;;;1.70;;
3991;SDS011;2010;48.194;16.394;2022-07-04T08:25:22;4.63;;;1.53;;
3991;SDS011;2010;48.194;16.394;2022-07-04T08:27:58;4.23;;;2.10;;
3991;SDS011;2010;48.194;16.394;2022-07-04T08:30:31;1.90;;;1.63;;
3991;SDS011;2010;48.194;16.394;2022-07-04T08:33:05;1.80;;;1.70;;
3991;SDS011;2010;48.194;16.394;2022-07-04T08:35:40;2.20;;;1.97;;
3991;SDS011;2010;48.194;16.394;2022-07-04T08:38:19;1.40;;;1.30;;
3991;SDS011;2010;48.194;16.394;2022-07-04T08:40:53;4.00;;;1.70;;
3991;SDS011;2010;48.194;16.394;2022-07-04T08:43:26;7.97;;;1.97;;
3991;SDS011;2010;48.194;16.394;2022-07-04T08:45:57;3.23;;;1.80;;
3991;SDS011;2010;48.194;16.394;2022-07-04T08:48:50;6.20;;;1.30;;
3991;SDS011;2010;48.194;16.394;2022-07-04T08:51:29;1.83;;;1.50;;
3991;SDS011;2010;48.194;16.394;2022-07-04T08:54:10;5.00;;;1.93;;
3991;SDS011;2010;48.194;16.394;2022-07-04T08:57:04;2.47;;;1.37;;
3991;SDS011;2010;48.194;16.394;2022-07-04T08:59:59;1.93;;;1.53;;
3991;SDS011;2010;48.194;16.394;2022-07-04T09:14:54;2.40;;;1.83;;
3991;SDS011;2010;48.194;16.394;2022-07-04T09:17:38;2.10;;;1.77;;
3991;SDS011;2010;48.194;16.394;2022-07-04T09:20:13;2.70;;;1.40;;
3991;SDS011;2010;48.194;16.394;2022-07-04T09:22:51;1.70;;;1.60;;
3991;SDS011;2010;48.194;16.394;2022-07-04T09:25:31;2.80;;;1.70;;
3991;SDS011;2010;48.194;16.394;2022-07-04T09:28:03;1.90;;;1.60;;
3991;SDS011;2010;48.194;16.394;2022-07-04T09:30:46;3.37;;;1.80;;
3991;SDS011;2010;48.194;16.394;2022-07-04T09:33:22;2.57;;;1.70;;
3991;SDS011;2010;48.194;16.394;2022-07-04T09:36:20;3.23;;;1.80;;
3991;SDS011;2010;48.194;16.394;2022-07-04T09:39:08;1.67;;;1.57;;
3991;SDS011;2010;48.194;16.394;2022-07-04T09:41:54;4.87;;;1.60;;
3991;SDS011;2010;48.194;16.394;2022-07-04T09:44:47;12.93;;;2.30;;
3991;SDS011;2010;48.194;16.394;2022-07-04T09:47:28;2.30;;;1.90;;
3991;SDS011;2010;48.194;16.394;2022-07-04T09:50:01;3.17;;;2.03;;
3991;SDS011;2010;48.194;16.394;2022-07-04T09:52:43;2.67;;;1.50;;
3991;SDS011;2010;48.194;16.394;2022-07-04T09:55:25;2.40;;;2.20;;
3991;SDS011;2010;48.194;16.394;2022-07-04T09:57:57;2.70;;;1.87;;
3991;SDS011;2010;48.194;16.394;2022-07-04T10:00:41;2.37;;;2.20;;
3991;SDS011;2010;48.194;16.394;2022-07-04T10:03:24;8.17;;;2.20;;
3991;SDS011;2010;48.194;16.394;2022-07-04T10:06:04;1.90;;;1.80;;
3991;SDS011;2010;48.194;16.394;2022-07-04T10:08:37;2.20;;;2.10;;
3991;SDS011;2010;48.194;16.394;2022-07-04T10:11:12;6.03;;;2.33;;
3991;SDS011;2010;48.194;16.394;2022-07-04T10:13:56;1.83;;;1.73;;
3991;SDS011;2010;48.194;16.394;2022-07-04T10:16:28;2.43;;;2.23;;
3991;SDS011;2010;48.194;16.394;2022-07-04T10:19:01;3.03;;;2.17;;
3991;SDS011;2010;48.194;16.394;2022-07-04T10:21:35;2.50;;;1.93;;
3991;SDS011;2010;48.194;16.394;2022-07-04T10:24:08;5.63;;;2.00;;
3991;SDS011;2010;48.194;16.394;2022-07-04T10:26:42;2.80;;;2.60;;
3991;SDS011;2010;48.194;16.394;2022-07-04T10:29:14;2.97;;;2.10;;
3991;SDS011;2010;48.194;16.394;2022-07-04T10:31:43;2.60;;;1.97;;
3991;SDS011;2010;48.194;16.394;2022-07-04T10:34:25;1.90;;;1.80;;
3991;SDS011;2010;48.194;16.394;2022-07-04T10:37:03;1.90;;;1.80;;
3991;SDS011;2010;48.194;16.394;2022-07-04T10:39:44;1.80;;;1.70;;
3991;SDS011;2010;48.194;16.394;2022-07-04T10:42:23;4.67;;;2.10;;
3991;SDS011;2010;48.194;16.394;2022-07-04T10:44:53;1.50;;;1.50;;
3991;SDS011;2010;48.194;16.394;2022-07-04T10:47:33;3.30;;;1.80;;
3991;SDS011;2010;48.194;16.394;2022-07-04T10:50:12;4.20;;;2.40;;
3991;SDS011;2010;48.194;16.394;2022-07-04T10:53:10;4.10;;;2.20;;
3991;SDS011;2010;48.194;16.394;2022-07-04T10:55:39;5.60;;;2.30;;
3991;SDS011;2010;48.194;16.394;2022-07-04T10:58:10;2.50;;;1.70;;
3991;SDS011;2010;48.194;16.394;2022-07-04T11:03:50;2.90;;;2.70;;
3991;SDS011;2010;48.194;16.394;2022-07-04T11:09:34;7.80;;;2.53;;
3991;SDS011;2010;48.194;16.394;2022-07-04T11:12:03;2.50;;;2.40;;
3991;SDS011;2010;48.194;16.394;2022-07-04T11:14:41;3.07;;;1.80;;
3991;SDS011;2010;48.194;16.394;2022-07-04T11:17:26;7.40;;;2.23;;
3991;SDS011;2010;48.194;16.394;2022-07-04T11:20:13;2.20;;;2.10;;
3991;SDS011;2010;48.194;16.394;2022-07-04T11:22:45;4.13;;;2.27;;
3991;SDS011;2010;48.194;16.394;2022-07-04T11:25:25;2.80;;;2.03;;
3991;SDS011;2010;48.194;16.394;2022-07-04T11:27:57;3.17;;;1.80;;
3991;SDS011;2010;48.194;16.394;2022-07-04T11:30:50;6.63;;;2.27;;
3991;SDS011;2010;48.194;16.394;2022-07-04T11:33:20;2.30;;;1.97;;
3991;SDS011;2010;48.194;16.394;2022-07-04T11:36:13;2.60;;;1.80;;
3991;SDS011;2010;48.194;16.394;2022-07-04T11:39:02;3.40;;;1.50;;
3991;SDS011;2010;48.194;16.394;2022-07-04T11:41:35;2.83;;;1.90;;
3991;SDS011;2010;48.194;16.394;2022-07-04T11:44:41;2.03;;;1.63;;
3991;SDS011;2010;48.194;16.394;2022-07-04T11:47:33;2.40;;;1.80;;
3991;SDS011;2010;48.194;16.394;2022-07-04T11:50:16;2.00;;;1.90;;
3991;SDS011;2010;48.194;16.394;2022-07-04T11:52:50;1.93;;;1.73;;
3991;SDS011;2010;48.194;16.394;2022-07-04T11:55:53;1.97;;;1.80;;
3991;SDS011;2010;48.194;16.394;2022-07-04T11:58:38;5.03;;;1.77;;
3991;SDS011;2010;48.194;16.394;2022-07-04T12:01:09;4.53;;;1.80;;
3991;SDS011;2010;48.194;16.394;2022-07-04T12:03:51;2.10;;;2.00;;
3991;SDS011;2010;48.194;16.394;2022-07-04T12:06:21;2.23;;;1.60;;
3991;SDS011;2010;48.194;16.394;2022-07-04T12:08:59;2.03;;;1.70;;
3991;SDS011;2010;48.194;16.394;2022-07-04T12:14:31;2.13;;;1.80;;
3991;SDS011;2010;48.194;16.394;2022-07-04T12:17:13;4.00;;;1.80;;
3991;SDS011;2010;48.194;16.394;2022-07-04T12:19:54;1.40;;;1.40;;
3991;SDS011;2010;48.194;16.394;2022-07-04T12:22:40;2.70;;;1.87;;
3991;SDS011;2010;48.194;16.394;2022-07-04T12:25:31;2.00;;;1.90;;
3991;SDS011;2010;48.194;16.394;2022-07-04T12:28:11;2.03;;;1.70;;
3991;SDS011;2010;48.194;16.394;2022-07-04T12:30:52;2.13;;;1.93;;
3991;SDS011;2010;48.194;16.394;2022-07-04T12:33:25;1.60;;;1.50;;
3991;SDS011;2010;48.194;16.394;2022-07-04T12:35:58;1.47;;;1.40;;
3991;SDS011;2010;48.194;16.394;2022-07-04T12:38:37;2.83;;;1.73;;
3991;SDS011;2010;48.194;16.394;2022-07-04T12:41:07;1.93;;;1.30;;
3991;SDS011;2010;48.194;16.394;2022-07-04T12:43:47;1.90;;;1.70;;
3991;SDS011;2010;48.194;16.394;2022-07-04T12:46:38;1.20;;;1.10;;
3991;SDS011;2010;48.194;16.394;2022-07-04T12:49:31;2.40;;;1.20;;
3991;SDS011;2010;48.194;16.394;2022-07-04T12:52:12;2.10;;;1.90;;
3991;SDS011;2010;48.194;16.394;2022-07-04T12:55:01;3.43;;;2.00;;
3991;SDS011;2010;48.194;16.394;2022-07-04T12:57:38;1.87;;;1.60;;
3991;SDS011;2010;48.194;16.394;2022-07-04T13:00:17;2.73;;;1.90;;
3991;SDS011;2010;48.194;16.394;2022-07-04T13:03:04;4.00;;;1.57;;
3991;SDS011;2010;48.194;16.394;2022-07-04T13:05:41;1.40;;;1.40;;
3991;SDS011;2010;48.194;16.394;2022-07-04T13:08:17;1.20;;;1.20;;
3991;SDS011;2010;48.194;16.394;2022-07-04T13:10:49;4.53;;;2.83;;
3991;SDS011;2010;48.194;16.394;2022-07-04T13:13:40;3.43;;;2.10;;
3991;SDS011;2010;48.194;16.394;2022-07-04T13:16:29;1.80;;;1.70;;
3991;SDS011;2010;48.194;16.394;2022-07-04T13:19:05;1.77;;;1.67;;
3991;SDS011;2010;48.194;16.394;2022-07-04T13:21:40;2.33;;;2.07;;
3991;SDS011;2010;48.194;16.394;2022-07-04T13:24:14;1.63;;;1.50;;
3991;SDS011;2010;48.194;16.394;2022-07-04T13:27:01;5.33;;;2.10;;
3991;SDS011;2010;48.194;16.394;2022-07-04T13:29:38;2.27;;;2.07;;
3991;SDS011;2010;48.194;16.394;2022-07-04T13:32:14;2.60;;;1.73;;
3991;SDS011;2010;48.194;16.394;2022-07-04T13:34:58;3.57;;;1.73;;
3991;SDS011;2010;48.194;16.394;2022-07-04T13:37:35;1.70;;;1.60;;
3991;SDS011;2010;48.194;16.394;2022-07-04T13:40:08;1.63;;;1.50;;
3991;SDS011;2010;48.194;16.394;2022-07-04T13:43:02;1.63;;;1.40;;
3991;SDS011;2010;48.194;16.394;2022-07-04T13:45:42;2.97;;;1.93;;
3991;SDS011;2010;48.194;16.394;2022-07-04T13:48:31;1.60;;;1.50;;
3991;SDS011;2010;48.194;16.394;2022-07-04T13:51:16;1.83;;;1.60;;
3991;SDS011;2010;48.194;16.394;2022-07-04T13:53:50;1.57;;;1.47;;
3991;SDS011;2010;48.194;16.394;2022-07-04T13:56:28;3.93;;;1.40;;
3991;SDS011;2010;48.194;16.394;2022-07-04T13:59:00;1.63;;;1.53;;
3991;SDS011;2010;48.194;16.394;2022-07-04T14:01:38;2.63;;;2.03;;
3991;SDS011;2010;48.194;16.394;2022-07-04T14:04:13;4.13;;;1.60;;
3991;SDS011;2010;48.194;16.394;2022-07-04T14:06:46;1.90;;;1.80;;
3991;SDS011;2010;48.194;16.394;2022-07-04T14:09:25;5.50;;;2.07;;
3991;SDS011;2010;48.194;16.394;2022-07-04T14:12:15;2.33;;;1.70;;
3991;SDS011;2010;48.194;16.394;2022-07-04T14:14:45;6.13;;;2.93;;
3991;SDS011;2010;48.194;16.394;2022-07-04T14:17:25;3.60;;;2.70;;
3991;SDS011;2010;48.194;16.394;2022-07-04T14:20:17;4.13;;;2.23;;
3991;SDS011;2010;48.194;16.394;2022-07-04T14:22:50;5.40;;;2.90;;
3991;SDS011;2010;48.194;16.394;2022-07-04T14:25:22;4.37;;;2.20;;
3991;SDS011;2010;48.194;16.394;2022-07-04T14:28:01;4.33;;;2.50;;
3991;SDS011;2010;48.194;16.394;2022-07-04T14:30:33;2.50;;;2.30;;
3991;SDS011;2010;48.194;16.394;2022-07-04T14:33:03;2.63;;;2.43;;
3991;SDS011;2010;48.194;16.394;2022-07-04T14:35:44;5.07;;;2.60;;
3991;SDS011;2010;48.194;16.394;2022-07-04T14:38:14;2.03;;;1.90;;
3991;SDS011;2010;48.194;16.394;2022-07-04T14:40:46;2.20;;;2.10;;
3991;SDS011;2010;48.194;16.394;2022-07-04T14:43:38;4.30;;;1.97;;
3991;SDS011;2010;48.194;16.394;2022-07-04T14:46:08;5.13;;;2.10;;
3991;SDS011;2010;48.194;16.394;2022-07-04T14:48:46;6.23;;;2.60;;
3991;SDS011;2010;48.194;16.394;2022-07-04T14:51:34;4.20;;;2.50;;
3991;SDS011;2010;48.194;16.394;2022-07-04T14:54:08;6.47;;;2.63;;
3991;SDS011;2010;48.194;16.394;2022-07-04T14:56:39;5.53;;;2.60;;
3991;SDS011;2010;48.194;16.394;2022-07-04T14:59:11;5.70;;;2.47;;
3991;SDS011;2010;48.194;16.394;2022-07-04T15:01:53;2.50;;;2.30;;
3991;SDS011;2010;48.194;16.394;2022-07-04T15:04:21;5.40;;;2.30;;
3991;SDS011;2010;48.194;16.394;2022-07-04T15:07:05;2.97;;;2.00;;
3991;SDS011;2010;48.194;16.394;2022-07-04T15:09:34;2.67;;;2.47;;
3991;SDS011;2010;48.194;16.394;2022-07-04T15:12:07;2.97;;;2.37;;
3991;SDS011;2010;48.194;16.394;2022-07-04T15:14:39;2.73;;;2.47;;
3991;SDS011;2010;48.194;16.394;2022-07-04T15:17:23;2.37;;;2.17;;
3991;SDS011;2010;48.194;16.394;2022-07-04T15:19:56;6.23;;;3.10;;
3991;SDS011;2010;48.194;16.394;2022-07-04T15:22:49;5.40;;;2.63;;
3991;SDS011;2010;48.194;16.394;2022-07-04T15:25:38;6.10;;;2.40;;
3991;SDS011;2010;48.194;16.394;2022-07-04T15:28:15;4.27;;;2.73;;
3991;SDS011;2010;48.194;16.394;2022-07-04T15:30:52;2.67;;;2.33;;
3991;SDS011;2010;48.194;16.394;2022-07-04T15:33:20;3.30;;;2.20;;
3991;SDS011;2010;48.194;16.394;2022-07-04T15:35:54;3.13;;;2.47;;
3991;SDS011;2010;48.194;16.394;2022-07-04T15:38:36;3.00;;;1.90;;
3991;SDS011;2010;48.194;16.394;2022-07-04T15:41:14;2.13;;;1.70;;
3991;SDS011;2010;48.194;16.394;2022-07-04T15:43:52;1.80;;;1.67;;
3991;SDS011;2010;48.194;16.394;2022-07-04T15:46:35;2.30;;;1.47;;
3991;SDS011;2010;48.194;16.394;2022-07-04T15:49:30;4.50;;;1.30;;
3991;SDS011;2010;48.194;16.394;2022-07-04T15:52:07;1.80;;;1.63;;
3991;SDS011;2010;48.194;16.394;2022-07-04T15:54:42;1.50;;;1.40;;
3991;SDS011;2010;48.194;16.394;2022-07-04T15:57:13;1.37;;;1.27;;
3991;SDS011;2010;48.194;16.394;2022-07-04T15:59:48;2.33;;;1.40;;
3991;SDS011;2010;48.194;16.394;2022-07-04T16:02:25;3.73;;;1.60;;
3991;SDS011;2010;48.194;16.394;2022-07-04T16:04:57;1.77;;;1.67;;
3991;SDS011;2010;48.194;16.394;2022-07-04T16:07:39;2.30;;;1.53;;
3991;SDS011;2010;48.194;16.394;2022-07-04T16:10:11;1.70;;;1.50;;
3991;SDS011;2010;48.194;16.394;2022-07-04T16:12:46;2.90;;;1.53;;
3991;SDS011;2010;48.194;16.394;2022-07-04T16:15:25;2.00;;;1.70;;
3991;SDS011;2010;48.194;16.394;2022-07-04T16:17:54;2.77;;;1.87;;
3991;SDS011;2010;48.194;16.394;2022-07-04T16:20:30;2.30;;;1.93;;
3991;SDS011;2010;48.194;16.394;2022-07-04T16:23:01;2.10;;;1.80;;